Station Historical Data
Daily Summary for March 23, 2012 Units:  Metric    English   Both
« Previous Day
Next Day »
Daily Weekly Monthly Yearly Custom
  High: Low: Average:
Temperature: 25.4 °C 15.1 °C 19.6 °C
Dew Point: 18.4 °C 8 °C 13.8 °C
Humidity: 95% 40% 73%
Wind Speed: 27.4km/h 0km/h 10.5km/h
Wind Gust: 30.6km/h - -
Wind- - South
Pressure: 1015.8 hPa 1009 hPa -
Precipitation: 0.76 mm    
Historical Graphs
 
 
Tabular Data for March 23, 2012
Time Temperature Dew Point Pressure Wind Wind Speed Wind Gust Humidity Rainfall Rate (Hourly) Conditions
00:00 16.7 °C 15.4 °C 1015.8 hPa SE 6.4 km/h 9.7 km/h 92% 0 mm
00:05 16.7 °C 15.4 °C 1015.8 hPa SE 11.3 km/h 12.9 km/h 92% 0 mm
00:10 16.8 °C 15.4 °C 1015.8 hPa SE 17.7 km/h 17.7 km/h 92% 0 mm
00:15 16.9 °C 15.6 °C 1015.8 hPa SE 8 km/h 17.7 km/h 92% 0 mm
00:20 16.9 °C 15.6 °C 1015.8 hPa ESE 8 km/h 16.1 km/h 92% 0 mm
00:25 16.9 °C 15.6 °C 1015.8 hPa ESE 12.9 km/h 17.7 km/h 92% 0 mm
00:30 16.9 °C 15.6 °C 1015.8 hPa ESE 17.7 km/h 17.7 km/h 92% 0 mm
00:36 16.9 °C 15.4 °C 1015.8 hPa SSE 17.7 km/h 17.7 km/h 91% 0 mm
00:41 16.9 °C 15.4 °C 1015.8 hPa SE 12.9 km/h 19.3 km/h 91% 0 mm
00:46 16.9 °C 15.4 °C 1015.5 hPa SE 12.9 km/h 20.9 km/h 91% 0 mm
00:51 16.9 °C 15.4 °C 1015.8 hPa SSE 9.7 km/h 19.3 km/h 91% 0 mm
00:56 16.9 °C 15.6 °C 1015.8 hPa SE 12.9 km/h 16.1 km/h 92% 0 mm
01:01 16.9 °C 15.6 °C 1015.8 hPa SE 14.5 km/h 16.1 km/h 92% 0 mm
01:06 16.9 °C 15.6 °C 1015.8 hPa SE 9.7 km/h 16.1 km/h 92% 0 mm
01:11 16.9 °C 15.6 °C 1015.8 hPa SE 16.1 km/h 17.7 km/h 92% 0 mm
01:16 16.9 °C 15.6 °C 1015.8 hPa ESE 12.9 km/h 19.3 km/h 92% 0 mm
01:21 16.9 °C 15.6 °C 1015.8 hPa SE 9.7 km/h 19.3 km/h 92% 0 mm
01:26 16.9 °C 15.6 °C 1015.8 hPa ESE 8 km/h 11.3 km/h 92% 0 mm
01:31 16.8 °C 15.6 °C 1015.5 hPa East 9.7 km/h 11.3 km/h 92% 0 mm
01:36 16.8 °C 15.6 °C 1015.5 hPa SSE 11.3 km/h 12.9 km/h 92% 0 mm
01:41 16.8 °C 15.6 °C 1015.5 hPa ESE 8 km/h 12.9 km/h 92% 0 mm
01:46 16.8 °C 15.6 °C 1015.5 hPa SSE 9.7 km/h 14.5 km/h 92% 0 mm
01:51 16.8 °C 15.6 °C 1015.5 hPa SE 11.3 km/h 12.9 km/h 92% 0 mm
01:56 16.9 °C 15.6 °C 1015.5 hPa SE 11.3 km/h 17.7 km/h 92% 0 mm
02:01 16.9 °C 15.6 °C 1015.5 hPa SE 9.7 km/h 16.1 km/h 92% 0 mm
02:06 16.9 °C 15.6 °C 1015.5 hPa SE 8 km/h 12.9 km/h 92% 0 mm
02:11 16.9 °C 15.6 °C 1015.5 hPa SE 9.7 km/h 11.3 km/h 92% 0 mm
02:16 16.9 °C 15.6 °C 1015.5 hPa SE 6.4 km/h 12.9 km/h 92% 0 mm
02:21 16.9 °C 15.6 °C 1015.5 hPa ESE 9.7 km/h 12.9 km/h 92% 0 mm
02:26 16.9 °C 15.6 °C 1015.5 hPa SE 11.3 km/h 12.9 km/h 92% 0 mm
02:31 16.8 °C 15.6 °C 1015.1 hPa SSE 8 km/h 12.9 km/h 92% 0 mm
02:37 16.8 °C 15.6 °C 1015.1 hPa ESE 9.7 km/h 12.9 km/h 92% 0 mm
02:42 16.8 °C 15.6 °C 1015.1 hPa SE 12.9 km/h 12.9 km/h 92% 0 mm
02:47 16.8 °C 15.4 °C 1015.1 hPa SE 8 km/h 11.3 km/h 92% 0 mm
02:52 16.7 °C 15.4 °C 1015.5 hPa SE 4.8 km/h 14.5 km/h 92% 0 mm
02:57 16.6 °C 15.3 °C 1015.5 hPa ESE 4.8 km/h 9.7 km/h 92% 0 mm
03:02 16.5 °C 15.4 °C 1015.5 hPa SE 4.8 km/h 8 km/h 93% 0 mm
03:07 16.4 °C 15.3 °C 1015.5 hPa SE 4.8 km/h 8 km/h 93% 0 mm
03:12 16.4 °C 15.3 °C 1015.5 hPa ESE 6.4 km/h 9.7 km/h 93% 0 mm
03:17 16.3 °C 15.2 °C 1015.5 hPa SE 8 km/h 8 km/h 93% 0 mm
03:22 16.2 °C 15.1 °C 1015.1 hPa ESE 8 km/h 8 km/h 93% 0 mm
03:27 16.1 °C 15 °C 1015.1 hPa ESE 3.2 km/h 6.4 km/h 93% 0 mm
03:32 16.1 °C 14.9 °C 1015.1 hPa SE 4.8 km/h 8 km/h 93% 0 mm
03:37 16 °C 14.9 °C 1015.1 hPa ESE 1.6 km/h 4.8 km/h 93% 0 mm
03:42 16 °C 15.1 °C 1015.1 hPa ESE 6.4 km/h 6.4 km/h 94% 0 mm
03:47 16 °C 15.1 °C 1014.8 hPa ESE 1.6 km/h 4.8 km/h 94% 0 mm
03:52 15.9 °C 15 °C 1014.8 hPa ESE 3.2 km/h 3.2 km/h 94% 0 mm
03:57 15.9 °C 14.9 °C 1014.8 hPa SE 1.6 km/h 3.2 km/h 94% 0 mm
04:02 15.9 °C 15 °C 1014.4 hPa ESE 3.2 km/h 3.2 km/h 94% 0 mm
04:07 16 °C 15.1 °C 1014.4 hPa ESE 3.2 km/h 4.8 km/h 94% 0 mm
04:12 16.1 °C 15.1 °C 1014.8 hPa ESE 1.6 km/h 4.8 km/h 94% 0 mm
04:17 16.1 °C 15.1 °C 1014.8 hPa SE 1.6 km/h 3.2 km/h 94% 0 mm
04:22 16.1 °C 15.2 °C 1014.4 hPa East 1.6 km/h 4.8 km/h 94% 0 mm
04:27 16.1 °C 15.2 °C 1014.8 hPa SSE 1.6 km/h 1.6 km/h 94% 0 mm
04:32 16.1 °C 15.2 °C 1014.4 hPa Calm   3.2 km/h 94% 0 mm
04:37 16.1 °C 15.1 °C 1014.4 hPa Calm   1.6 km/h 94% 0 mm
04:43 15.9 °C 15 °C 1014.4 hPa Calm   1.6 km/h 94% 0 mm
04:48 15.9 °C 14.9 °C 1014.4 hPa Calm     94% 0 mm
04:53 15.9 °C 14.9 °C 1014.1 hPa Calm   1.6 km/h 94% 0 mm
04:58 15.9 °C 14.9 °C 1014.4 hPa SE 1.6 km/h 1.6 km/h 94% 0 mm
05:03 15.9 °C 14.9 °C 1014.4 hPa ESE 1.6 km/h 1.6 km/h 94% 0 mm
05:08 15.9 °C 14.9 °C 1014.4 hPa ESE 1.6 km/h 4.8 km/h 94% 0 mm
05:13 15.9 °C 14.9 °C 1014.1 hPa ESE 4.8 km/h 4.8 km/h 94% 0 mm
05:18 15.9 °C 14.9 °C 1014.1 hPa ESE 3.2 km/h 6.4 km/h 94% 0 mm
05:23 15.8 °C 14.9 °C 1014.1 hPa ESE 6.4 km/h 8 km/h 94% 0 mm
05:28 15.8 °C 14.8 °C 1014.1 hPa ESE 4.8 km/h 6.4 km/h 94% 0 mm
05:33 15.8 °C 14.8 °C 1014.1 hPa ESE 6.4 km/h 8 km/h 94% 0 mm
05:38 15.8 °C 14.8 °C 1014.4 hPa SE 6.4 km/h 9.7 km/h 94% 0 mm
05:43 15.9 °C 14.9 °C 1014.4 hPa SE 4.8 km/h 6.4 km/h 94% 0 mm
05:48 15.9 °C 15 °C 1014.4 hPa SE 3.2 km/h 8 km/h 94% 0 mm
05:53 16.1 °C 15.1 °C 1014.1 hPa SE 9.7 km/h 9.7 km/h 94% 0 mm
05:58 16.1 °C 15.1 °C 1014.1 hPa SE 6.4 km/h 9.7 km/h 94% 0 mm
06:03 16.1 °C 15.2 °C 1014.1 hPa SE 6.4 km/h 9.7 km/h 94% 0 mm
06:08 16.1 °C 15.2 °C 1014.1 hPa ESE 9.7 km/h 9.7 km/h 94% 0 mm
06:13 16.1 °C 15.1 °C 1014.1 hPa ESE 4.8 km/h 8 km/h 94% 0 mm
06:18 16.1 °C 15.1 °C 1014.1 hPa ESE 6.4 km/h 8 km/h 94% 0 mm
06:23 16.1 °C 15.3 °C 1014.1 hPa ESE 6.4 km/h 12.9 km/h 95% 0 mm
06:28 16.2 °C 15.4 °C 1014.1 hPa SE 4.8 km/h 9.7 km/h 95% 0 mm
06:33 16.2 °C 15.4 °C 1014.1 hPa ESE 6.4 km/h 9.7 km/h 95% 0 mm
06:39 16.3 °C 15.5 °C 1014.1 hPa SE 8 km/h 8 km/h 95% 0 mm
06:44 16.3 °C 15.6 °C 1013.8 hPa SE 4.8 km/h 6.4 km/h 95% 0 mm
06:49 16.3 °C 15.6 °C 1013.8 hPa SE 3.2 km/h 6.4 km/h 95% 0 mm
06:54 16.3 °C 15.6 °C 1014.1 hPa SE 8 km/h 9.7 km/h 95% 0 mm
06:59 16.3 °C 15.4 °C 1014.1 hPa SSE 6.4 km/h 6.4 km/h 94% 0 mm
07:04 16.3 °C 15.4 °C 1014.1 hPa South 3.2 km/h 4.8 km/h 94% 0 mm
07:09 16.3 °C 15.4 °C 1014.1 hPa South 1.6 km/h 3.2 km/h 94% 0 mm
07:14 16.3 °C 15.5 °C 1014.1 hPa SE 3.2 km/h 4.8 km/h 95% 0 mm
07:19 16.3 °C 15.6 °C 1014.1 hPa SSE 4.8 km/h 11.3 km/h 95% 3.56 mm
07:24 16.4 °C 15.7 °C 1014.1 hPa SE 3.2 km/h 6.4 km/h 95% 1.52 mm
07:29 16.5 °C 15.7 °C 1014.1 hPa SE 3.2 km/h 6.4 km/h 95% 1.02 mm
07:34 16.5 °C 15.7 °C 1014.1 hPa SE 6.4 km/h 8 km/h 95% 0 mm
07:39 16.6 °C 15.8 °C 1014.1 hPa SSE 1.6 km/h 6.4 km/h 95% 0 mm
07:44 16.6 °C 15.8 °C 1014.1 hPa South 6.4 km/h 11.3 km/h 95% 0 mm
07:49 16.6 °C 15.8 °C 1014.1 hPa SE 9.7 km/h 11.3 km/h 95% 0 mm
07:54 16.7 °C 15.9 °C 1014.1 hPa SSE 4.8 km/h 11.3 km/h 95% 0 mm
07:59 16.7 °C 15.9 °C 1014.1 hPa SE 12.9 km/h 14.5 km/h 95% 0 mm
08:04 16.7 °C 15.9 °C 1014.1 hPa SE 16.1 km/h 16.1 km/h 95% 0 mm
08:09 16.8 °C 16 °C 1014.1 hPa SE 6.4 km/h 12.9 km/h 95% 0 mm
08:14 16.8 °C 16 °C 1014.1 hPa SE 6.4 km/h 14.5 km/h 95% 0 mm
08:19 16.8 °C 16 °C 1014.1 hPa SSE 8 km/h 11.3 km/h 95% 0 mm
08:24 16.8 °C 16 °C 1014.1 hPa SSE 8 km/h 11.3 km/h 95% 0 mm
08:29 16.8 °C 15.8 °C 1014.1 hPa ESE 8 km/h 9.7 km/h 94% 0 mm
08:34 16.8 °C 15.8 °C 1014.1 hPa SE 8 km/h 8 km/h 94% 0 mm
08:39 16.8 °C 15.8 °C 1014.1 hPa SSE 4.8 km/h 9.7 km/h 94% 0 mm
08:44 16.8 °C 15.8 °C 1014.1 hPa SE 12.9 km/h 12.9 km/h 94% 0 mm
08:49 16.8 °C 15.9 °C 1014.1 hPa ESE 11.3 km/h 12.9 km/h 94% 0 mm
08:54 16.8 °C 15.9 °C 1014.1 hPa SE 11.3 km/h 14.5 km/h 94% 0 mm
08:59 16.9 °C 16 °C 1014.1 hPa SE 16.1 km/h 19.3 km/h 94% 0 mm
09:04 17 °C 16 °C 1014.1 hPa ESE 12.9 km/h 17.7 km/h 94% 0 mm
09:09 17.1 °C 16.1 °C 1014.1 hPa SE 14.5 km/h 16.1 km/h 94% 0 mm
09:15 17.1 °C 16.1 °C 1014.1 hPa SE 6.4 km/h 14.5 km/h 94% 0 mm
09:20 17.2 °C 16.2 °C 1014.1 hPa SSE 9.7 km/h 17.7 km/h 94% 0 mm
09:25 17.3 °C 16.4 °C 1014.1 hPa SE 11.3 km/h 17.7 km/h 94% 0 mm
09:30 17.4 °C 16.5 °C 1014.1 hPa SE 9.7 km/h 16.1 km/h 94% 0 mm
09:35 17.6 °C 16.6 °C 1014.1 hPa SE 12.9 km/h 19.3 km/h 94% 0 mm
09:40 17.8 °C 16.8 °C 1014.4 hPa SSE 8 km/h 22.5 km/h 94% 0 mm
09:45 18.2 °C 17 °C 1014.4 hPa South 16.1 km/h 20.9 km/h 93% 0 mm
09:50 18.3 °C 17.1 °C 1014.1 hPa SE 9.7 km/h 16.1 km/h 93% 0 mm
09:55 18.4 °C 17.1 °C 1014.4 hPa SSE 22.5 km/h 22.5 km/h 92% 0 mm
10:00 18.5 °C 17.2 °C 1014.4 hPa SSE 11.3 km/h 20.9 km/h 92% 0 mm
10:05 18.5 °C 17 °C 1014.1 hPa SSE 12.9 km/h 19.3 km/h 91% 0 mm
10:07 18.6 °C 17.2 °C 1014.1 hPa SSE 9.7 km/h 19.3 km/h 92% 0 mm
10:12 18.8 °C 17.5 °C 1014.1 hPa South 14.5 km/h 14.5 km/h 92% 0 mm
10:17 18.9 °C 17.4 °C 1014.1 hPa SE 14.5 km/h 17.7 km/h 91% 0 mm
10:22 19 °C 17.5 °C 1014.1 hPa SSE 11.3 km/h 17.7 km/h 91% 0 mm
10:27 19.2 °C 17.6 °C 1014.1 hPa SSW 16.1 km/h 19.3 km/h 90% 0 mm
10:32 19.2 °C 17.3 °C 1014.4 hPa South 11.3 km/h 20.9 km/h 89% 0 mm
10:38 19 °C 17.3 °C 1014.4 hPa SE 9.7 km/h 16.1 km/h 90% 0 mm
10:43 18.8 °C 17.1 °C 1014.4 hPa SSE 14.5 km/h 22.5 km/h 90% 0 mm
10:48 18.7 °C 17.1 °C 1014.4 hPa SSE 14.5 km/h 19.3 km/h 90% 0 mm
10:53 18.9 °C 17.4 °C 1014.1 hPa SSE 6.4 km/h 12.9 km/h 91% 0 mm
10:58 19 °C 17.3 °C 1014.4 hPa SSE 17.7 km/h 17.7 km/h 90% 0 mm
11:03 19.3 °C 17.6 °C 1014.4 hPa SSE 12.9 km/h 19.3 km/h 90% 0 mm
11:08 19.5 °C 17.8 °C 1014.4 hPa South 8 km/h 14.5 km/h 90% 0 mm
11:13 19.8 °C 17.9 °C 1014.4 hPa SSW 9.7 km/h 17.7 km/h 89% 0 mm
11:18 20 °C 17.9 °C 1014.4 hPa South 14.5 km/h 19.3 km/h 88% 0 mm
11:23 20.1 °C 18 °C 1014.1 hPa SE 9.7 km/h 17.7 km/h 88% 0 mm
11:28 20.3 °C 17.9 °C 1014.1 hPa SSE 14.5 km/h 22.5 km/h 86% 0 mm
11:33 20.3 °C 17.9 °C 1014.1 hPa SSE 6.4 km/h 25.7 km/h 86% 0 mm
11:38 20.4 °C 17.8 °C 1014.1 hPa SSW 9.7 km/h 16.1 km/h 85% 0 mm
11:43 20.8 °C 18.4 °C 1014.1 hPa SSE 4.8 km/h 19.3 km/h 86% 0 mm
11:49 20.8 °C 17.7 °C 1014.1 hPa South 11.3 km/h 20.9 km/h 82% 0 mm
11:54 20.9 °C 17.9 °C 1013.8 hPa SSE 12.9 km/h 14.5 km/h 83% 0 mm
11:59 20.9 °C 17.9 °C 1013.8 hPa South 12.9 km/h 16.1 km/h 83% 0 mm
12:04 21.2 °C 17.6 °C 1013.8 hPa South 14.5 km/h 16.1 km/h 80% 0 mm
12:09 21.4 °C 18.4 °C 1013.8 hPa SW 12.9 km/h 12.9 km/h 83% 0 mm
12:14 21.7 °C 17.4 °C 1013.4 hPa SW 11.3 km/h 17.7 km/h 77% 0 mm
12:19 21.8 °C 17.6 °C 1013.4 hPa SSW 11.3 km/h 19.3 km/h 77% 0 mm
12:24 21.8 °C 17.4 °C 1013.4 hPa South 17.7 km/h 20.9 km/h 76% 0 mm
12:29 21.7 °C 16.6 °C 1013.4 hPa South 11.3 km/h 24.1 km/h 73% 0 mm
12:34 22 °C 16.7 °C 1013.1 hPa South 9.7 km/h 22.5 km/h 72% 0 mm
12:39 22 °C 16.9 °C 1013.1 hPa South 9.7 km/h 19.3 km/h 73% 0 mm
12:44 21.8 °C 16.9 °C 1013.1 hPa SW 9.7 km/h 14.5 km/h 74% 0 mm
12:49 22.2 °C 17.1 °C 1013.1 hPa SSE 19.3 km/h 29 km/h 73% 0 mm
12:54 22.4 °C 16.9 °C 1013.1 hPa SW 16.1 km/h 24.1 km/h 71% 0 mm
12:59 22.6 °C 17.3 °C 1012.8 hPa SSE 6.4 km/h 20.9 km/h 72% 0 mm
13:04 22.6 °C 16.1 °C 1013.1 hPa SSE 12.9 km/h 25.7 km/h 67% 0 mm
13:09 22.4 °C 16.7 °C 1012.8 hPa South 8 km/h 14.5 km/h 70% 0 mm
13:14 22.7 °C 17.7 °C 1012.8 hPa South 11.3 km/h 19.3 km/h 73% 0 mm
13:19 22.8 °C 16.8 °C 1012.8 hPa SE 22.5 km/h 22.5 km/h 69% 0 mm
13:24 23 °C 17 °C 1012.4 hPa SE 9.7 km/h 12.9 km/h 69% 0 mm
13:29 23.3 °C 15.8 °C 1012.4 hPa SE 20.9 km/h 24.1 km/h 63% 0 mm
13:34 23.3 °C 15.9 °C 1012.8 hPa SW 11.3 km/h 20.9 km/h 63% 0 mm
13:39 23.6 °C 15.8 °C 1012.4 hPa SSW 11.3 km/h 17.7 km/h 62% 0 mm
13:44 23.7 °C 14.7 °C 1012.4 hPa SW 14.5 km/h 24.1 km/h 57% 0 mm
13:49 23.6 °C 15.8 °C 1012.4 hPa SSE 16.1 km/h 17.7 km/h 62% 0 mm
13:54 23.9 °C 16.5 °C 1012.4 hPa SE 19.3 km/h 19.3 km/h 63% 0 mm
14:00 23.9 °C 14.6 °C 1012.1 hPa SW 11.3 km/h 19.3 km/h 56% 0 mm
14:05 24.1 °C 15.1 °C 1012.4 hPa SSW 19.3 km/h 25.7 km/h 57% 0 mm
14:10 23.9 °C 14.3 °C 1012.1 hPa SE 17.7 km/h 29 km/h 55% 0 mm
14:15 24.1 °C 14.7 °C 1012.1 hPa SSW 16.1 km/h 25.7 km/h 56% 0 mm
14:20 24.2 °C 14.1 °C 1012.1 hPa SSE 14.5 km/h 20.9 km/h 53% 0 mm
14:25 24.1 °C 14.5 °C 1012.1 hPa South 20.9 km/h 22.5 km/h 55% 0 mm
14:30 24.2 °C 13.8 °C 1011.7 hPa SW 14.5 km/h 20.9 km/h 52% 0 mm
14:35 24.4 °C 12.1 °C 1011.7 hPa South 14.5 km/h 24.1 km/h 46% 0 mm
14:40 24.8 °C 13.7 °C 1011.7 hPa SW 11.3 km/h 17.7 km/h 50% 0 mm
14:45 24.7 °C 12.3 °C 1011.7 hPa South 22.5 km/h 22.5 km/h 46% 0 mm
14:50 24.3 °C 11.7 °C 1011.4 hPa South 14.5 km/h 20.9 km/h 45% 0 mm
14:55 24.4 °C 11.8 °C 1011.4 hPa SE 16.1 km/h 30.6 km/h 45% 0 mm
14:57 24.5 °C 12.1 °C 1011.4 hPa SE 22.5 km/h 25.7 km/h 46% 0 mm
15:02 24.5 °C 11.1 °C 1011.1 hPa SW 12.9 km/h 24.1 km/h 43% 0 mm
15:07 24.1 °C 11.4 °C 1011.1 hPa SW 12.9 km/h 22.5 km/h 45% 0 mm
15:12 24.3 °C 12.3 °C 1011.1 hPa South 6.4 km/h 19.3 km/h 47% 0 mm
15:17 24.6 °C 11.8 °C 1011.4 hPa SSE 16.1 km/h 30.6 km/h 45% 0 mm
15:22 24.7 °C 11.3 °C 1011.1 hPa SW 24.1 km/h 24.1 km/h 43% 0 mm
15:27 24.7 °C 10.9 °C 1011.1 hPa SSE 9.7 km/h 22.5 km/h 42% 0 mm
15:32 24.8 °C 11.4 °C 1010.7 hPa South 12.9 km/h 30.6 km/h 43% 0 mm
15:37 24.8 °C 10.7 °C 1010.7 hPa SSW 9.7 km/h 20.9 km/h 41% 0 mm
15:42 24.9 °C 10.7 °C 1010.7 hPa South 11.3 km/h 25.7 km/h 41% 0 mm
15:48 25.1 °C 10.9 °C 1010.4 hPa SSW 16.1 km/h 24.1 km/h 41% 0 mm
15:53 25.3 °C 11.8 °C 1010.4 hPa WSW 16.1 km/h 22.5 km/h 43% 0 mm
15:58 25.3 °C 11.5 °C 1010.4 hPa SW 22.5 km/h 22.5 km/h 42% 0 mm
16:03 25.2 °C 10.6 °C 1010.4 hPa SW 20.9 km/h 22.5 km/h 40% 0 mm
16:08 25.2 °C 11.8 °C 1010.4 hPa SW 11.3 km/h 25.7 km/h 43% 0 mm
16:13 25.2 °C 11.4 °C 1010 hPa South 16.1 km/h 20.9 km/h 42% 0 mm
16:18 25.1 °C 11.3 °C 1010.4 hPa WSW 20.9 km/h 24.1 km/h 42% 0 mm
16:23 24.9 °C 10.8 °C 1010 hPa WSW 12.9 km/h 22.5 km/h 41% 0 mm
16:28 25 °C 11.2 °C 1010 hPa South 12.9 km/h 20.9 km/h 42% 0 mm
16:33 25.1 °C 12.3 °C 1010 hPa SSE 19.3 km/h 19.3 km/h 45% 0 mm
16:38 25.1 °C 11.6 °C 1010 hPa SW 9.7 km/h 24.1 km/h 43% 0 mm
16:43 25.3 °C 11.9 °C 1009.7 hPa SW 11.3 km/h 22.5 km/h 43% 0 mm
16:48 25.2 °C 11.4 °C 1010 hPa SE 27.4 km/h 27.4 km/h 42% 0 mm
16:53 25.2 °C 11.4 °C 1009.7 hPa SSW 11.3 km/h 17.7 km/h 42% 0 mm
16:58 25.3 °C 11.8 °C 1009.7 hPa SSE 9.7 km/h 24.1 km/h 43% 0 mm
17:03 25.4 °C 11.6 °C 1009.4 hPa WSW 12.9 km/h 22.5 km/h 42% 0 mm
17:08 25.3 °C 11.4 °C 1009.4 hPa SW 12.9 km/h 20.9 km/h 42% 0 mm
17:13 25.3 °C 12.5 °C 1009.4 hPa South 14.5 km/h 17.7 km/h 45% 0 mm
17:18 25.2 °C 11.8 °C 1009.4 hPa South 12.9 km/h 29 km/h 43% 0 mm
17:19 25.2 °C 11.8 °C 1009.4 hPa South 14.5 km/h 29 km/h 43% 0 mm
17:24 25.2 °C 11.8 °C 1009.4 hPa SW 17.7 km/h 27.4 km/h 43% 0 mm
17:29 25.1 °C 12.3 °C 1009.4 hPa SW 17.7 km/h 22.5 km/h 45% 0 mm
17:34 25.1 °C 12 °C 1009 hPa SSW 19.3 km/h 25.7 km/h 44% 0 mm
17:39 24.8 °C 11.4 °C 1009.4 hPa South 8 km/h 30.6 km/h 43% 0 mm
17:44 24.6 °C 11.5 °C 1009 hPa SSW 25.7 km/h 27.4 km/h 44% 0 mm
17:49 24.3 °C 11.9 °C 1009 hPa SSW 14.5 km/h 20.9 km/h 46% 0 mm
17:54 24.2 °C 11.8 °C 1009.4 hPa SW 11.3 km/h 20.9 km/h 46% 0 mm
17:59 23.9 °C 11.6 °C 1009 hPa SW 20.9 km/h 20.9 km/h 46% 0 mm
18:04 23.8 °C 12.2 °C 1009.4 hPa SSW 9.7 km/h 25.7 km/h 48% 0 mm
18:09 23.9 °C 11.6 °C 1009.4 hPa SW 20.9 km/h 25.7 km/h 46% 0 mm
18:14 23.6 °C 11.7 °C 1009.4 hPa SW 14.5 km/h 22.5 km/h 47% 0 mm
18:19 23.3 °C 12.3 °C 1009.4 hPa WSW 11.3 km/h 17.7 km/h 50% 0 mm
18:24 23.2 °C 11.9 °C 1009.4 hPa SW 9.7 km/h 25.7 km/h 49% 0 mm
18:29 23.4 °C 11.8 °C 1009.4 hPa SW 19.3 km/h 19.3 km/h 48% 0 mm
18:34 23.6 °C 12.3 °C 1009.4 hPa SW 14.5 km/h 17.7 km/h 49% 0 mm
18:39 23.6 °C 11.9 °C 1009.4 hPa SW 16.1 km/h 20.9 km/h 48% 0 mm
18:44 23.3 °C 12.3 °C 1009.4 hPa SW 11.3 km/h 16.1 km/h 50% 0 mm
18:49 23.2 °C 12.2 °C 1009.4 hPa South 11.3 km/h 19.3 km/h 50% 0 mm
18:55 23.2 °C 11.6 °C 1009.4 hPa WSW 16.1 km/h 22.5 km/h 48% 0 mm
19:00 23.2 °C 12.2 °C 1009.4 hPa South 8 km/h 17.7 km/h 50% 0 mm
19:05 23.3 °C 12.3 °C 1009.4 hPa SSW 9.7 km/h 16.1 km/h 50% 0 mm
19:10 23.2 °C 12.2 °C 1009.4 hPa SW 9.7 km/h 19.3 km/h 50% 0 mm
19:15 22.9 °C 12.3 °C 1009.4 hPa SW 6.4 km/h 16.1 km/h 51% 0 mm
19:20 22.8 °C 12.2 °C 1009.4 hPa SE 14.5 km/h 25.7 km/h 51% 0 mm
19:25 22.7 °C 11.8 °C 1009.4 hPa SSW 19.3 km/h 24.1 km/h 50% 0 mm
19:30 22.7 °C 11.7 °C 1009.4 hPa South 8 km/h 19.3 km/h 50% 0 mm
19:35 22.9 °C 11.9 °C 1009.4 hPa SSW 16.1 km/h 25.7 km/h 50% 0 mm
19:40 22.9 °C 11.9 °C 1009.7 hPa SSW 11.3 km/h 25.7 km/h 50% 0 mm
19:41 22.9 °C 11.9 °C 1009.7 hPa South 9.7 km/h 25.7 km/h 50% 0 mm
19:46 22.8 °C 11.8 °C 1009.4 hPa SW 9.7 km/h 20.9 km/h 50% 0 mm
19:51 22.5 °C 12.2 °C 1009.4 hPa WSW 9.7 km/h 17.7 km/h 52% 0 mm
19:56 22.3 °C 12 °C 1009.4 hPa WSW 14.5 km/h 20.9 km/h 52% 0 mm
20:01 22.1 °C 12.1 °C 1009.4 hPa WSW 16.1 km/h 19.3 km/h 53% 0 mm
20:06 21.9 °C 12.2 °C 1009.4 hPa SW 12.9 km/h 19.3 km/h 54% 0 mm
20:11 21.7 °C 12 °C 1009.7 hPa WSW 17.7 km/h 19.3 km/h 54% 0 mm
20:16 21.6 °C 11.8 °C 1009.7 hPa WSW 9.7 km/h 22.5 km/h 54% 0 mm
20:21 21.4 °C 11.1 °C 1009.7 hPa West 20.9 km/h 24.1 km/h 52% 0 mm
20:26 21.3 °C 10.4 °C 1009.7 hPa WSW 12.9 km/h 24.1 km/h 50% 0 mm
20:31 21 °C 10.5 °C 1009.7 hPa WSW 9.7 km/h 14.5 km/h 51% 0 mm
20:36 20.8 °C 10.3 °C 1009.7 hPa SW 16.1 km/h 20.9 km/h 51% 0 mm
20:41 20.7 °C 9.3 °C 1009.7 hPa SW 19.3 km/h 19.3 km/h 48% 0 mm
20:46 20.6 °C 9.2 °C 1009.7 hPa WSW 9.7 km/h 16.1 km/h 48% 0 mm
20:51 20.3 °C 9 °C 1009.7 hPa SW 8 km/h 19.3 km/h 48% 0 mm
20:56 20.1 °C 9.1 °C 1010 hPa West 8 km/h 12.9 km/h 49% 0 mm
21:01 19.8 °C 9.1 °C 1010 hPa West 4.8 km/h 8 km/h 50% 0 mm
21:06 19.6 °C 9.2 °C 1010 hPa West 8 km/h 9.7 km/h 51% 0 mm
21:11 19.4 °C 8.7 °C 1010 hPa SW 9.7 km/h 12.9 km/h 50% 0 mm
21:16 19.3 °C 8.9 °C 1010.4 hPa West 8 km/h 16.1 km/h 51% 0 mm
21:21 19.2 °C 8.8 °C 1010.4 hPa West 8 km/h 12.9 km/h 51% 0 mm
21:26 19.1 °C 8.4 °C 1010.4 hPa WSW 12.9 km/h 16.1 km/h 50% 0 mm
21:31 19.1 °C 8.7 °C 1010.4 hPa West 8 km/h 19.3 km/h 51% 0 mm
21:36 18.9 °C 8.6 °C 1010.4 hPa West 11.3 km/h 12.9 km/h 51% 0 mm
21:42 18.8 °C 8.5 °C 1010.4 hPa WSW 8 km/h 12.9 km/h 51% 0 mm
21:47 18.7 °C 8.6 °C 1010.7 hPa West 8 km/h 16.1 km/h 52% 0 mm
21:48 18.7 °C 8.6 °C 1010.7 hPa West 19.3 km/h 19.3 km/h 52% 0 mm
21:53 18.7 °C 8.7 °C 1010.7 hPa WNW 14.5 km/h 19.3 km/h 52% 0 mm
21:58 18.6 °C 8.5 °C 1011.1 hPa West 12.9 km/h 19.3 km/h 52% 0 mm
22:03 18.4 °C 8.4 °C 1011.1 hPa WNW 4.8 km/h 20.9 km/h 52% 0 mm
22:08 18.2 °C 8.4 °C 1011.1 hPa West 9.7 km/h 22.5 km/h 53% 0 mm
22:13 17.8 °C 8.4 °C 1011.1 hPa WSW 12.9 km/h 16.1 km/h 54% 0 mm
22:18 17.7 °C 8.3 °C 1011.1 hPa WSW 8 km/h 19.3 km/h 54% 0 mm
22:23 17.5 °C 8.4 °C 1011.1 hPa West 6.4 km/h 20.9 km/h 55% 0 mm
22:28 17.3 °C 8.4 °C 1011.1 hPa WSW 12.9 km/h 14.5 km/h 56% 0 mm
22:33 17.1 °C 8.2 °C 1011.1 hPa West 6.4 km/h 11.3 km/h 56% 0 mm
22:38 16.9 °C 8.4 °C 1011.4 hPa West 4.8 km/h 14.5 km/h 57% 0 mm
22:43 16.8 °C 8.3 °C 1011.4 hPa West 3.2 km/h 14.5 km/h 57% 0 mm
22:48 16.6 °C 8.1 °C 1011.4 hPa West 8 km/h 12.9 km/h 57% 0 mm
22:53 16.4 °C 8.2 °C 1011.4 hPa West 4.8 km/h 12.9 km/h 58% 0 mm
22:58 16.3 °C 8.1 °C 1011.4 hPa WSW 8 km/h 12.9 km/h 58% 0 mm
23:03 16.3 °C 8.3 °C 1011.4 hPa West 9.7 km/h 12.9 km/h 59% 0 mm
23:08 16.1 °C 8.1 °C 1011.4 hPa West 8 km/h 8 km/h 59% 0 mm
23:13 16 °C 8 °C 1011.4 hPa West 4.8 km/h 8 km/h 59% 0 mm
23:18 15.9 °C 8.2 °C 1011.4 hPa WSW 14.5 km/h 14.5 km/h 60% 0 mm
23:23 15.8 °C 8.1 °C 1011.4 hPa West 4.8 km/h 9.7 km/h 60% 0 mm
23:28 15.6 °C 8.1 °C 1011.4 hPa SW 8 km/h 12.9 km/h 61% 0 mm
23:33 15.6 °C 8.1 °C 1011.1 hPa SW 4.8 km/h 9.7 km/h 61% 0 mm
23:38 15.4 °C 8.2 °C 1011.4 hPa WSW 3.2 km/h 6.4 km/h 62% 0 mm
23:43 15.3 °C 8.1 °C 1011.1 hPa West 1.6 km/h 8 km/h 62% 0 mm
23:48 15.3 °C 8.3 °C 1011.1 hPa West 12.9 km/h 12.9 km/h 63% 0 mm
23:53 15.2 °C 8 °C 1011.1 hPa West 4.8 km/h 9.7 km/h 62% 0 mm
23:58 15.1 °C 8.1 °C 1011.1 hPa West 3.2 km/h 9.7 km/h 63% 0 mm
Compliments of Weather Underground